This is the latest recevied weather packets stored in our database for station/object N7DQ. If no packets are shown the sender has not sent any weather packets the latest 10 day(s).
| Time | Temp. | Humidity | Pressure | Rain* | Wind** | Luminosity | Snow |
|---|---|---|---|---|---|---|---|
| 1777789805 | 14.44° C | 84% | 1013.8 hPa | 0 mm | - | 0 W/m² | - |
| 1777789506 | 15° C | 83% | 1013.8 hPa | 0 mm | - | 0 W/m² | - |
| 1777789205 | 15° C | 83% | 1013.6 hPa | 0 mm | - | 0 W/m² | - |
| 1777788906 | 15° C | 82% | 1013.7 hPa | 0 mm | - | 0 W/m² | - |
| 1777788606 | 15° C | 82% | 1013.7 hPa | 0 mm | - | 0 W/m² | - |
| 1777780806 | 18.33° C | 74% | 1012.9 hPa | 0 mm | - | 0 W/m² | - |
| 1777773005 | 23.89° C | 59% | 1011.6 hPa | 0 mm | - | 188 W/m² | - |
| 1777772705 | 23.89° C | 59% | 1011.7 hPa | 0 mm | - | 216 W/m² | - |
| 1777772405 | 23.89° C | 59% | 1011.7 hPa | 0 mm | - | 236 W/m² | - |
| 1777772105 | 24.44° C | 58% | 1011.7 hPa | 0 mm | - | 253 W/m² | - |
| 1777771806 | 24.44° C | 57% | 1011.8 hPa | 0 mm | - | 271 W/m² | - |
| 1777771505 | 24.44° C | 56% | 1011.7 hPa | 0 mm | - | 283 W/m² | - |
| 1777771205 | 24.44° C | 55% | 1011.7 hPa | 0 mm | - | 301 W/m² | - |
| 1777770905 | 24.44° C | 56% | 1011.6 hPa | 0 mm | - | 315 W/m² | - |
| 1777770605 | 25° C | 55% | 1011.6 hPa | 0 mm | - | 330 W/m² | - |
| 1777770305 | 25° C | 55% | 1011.6 hPa | 0 mm | - | 346 W/m² | - |
| 1777770005 | 24.44° C | 55% | 1011.6 hPa | 0 mm | - | 355 W/m² | - |
| 1777769705 | 25° C | 56% | 1011.6 hPa | 0 mm | - | 357 W/m² | - |
| 1777765505 | 23.33° C | 64% | 1011.8 hPa | 0 mm | - | 564 W/m² | - |
| 1777765206 | 22.22° C | 67% | 1011.9 hPa | 0 mm | - | 577 W/m² | - |
| 1777764905 | 21.67° C | 68% | 1012 hPa | 0 mm | - | 564 W/m² | - |
| 1777764605 | 22.22° C | 69% | 1012 hPa | 0 mm | - | 315 W/m² | - |
| 1777764305 | 21.67° C | 68% | 1012.3 hPa | 0 mm | - | 241 W/m² | - |
| 1777764006 | 21.67° C | 70% | 1012.4 hPa | 0 mm | - | 301 W/m² | - |
| 1777763705 | 21.11° C | 71% | 1012.4 hPa | 0 mm | - | 466 W/m² | - |
* Rain latest hour (hover to see other rain measurements)
** Current wind speed in m/s (hover to see current wind gust speed)